METAR Data
IDs: Format: Raw Decoded Include TAF

Data at: 1017 UTC 18 Jan 2022

KDEN 180953Z 24010KT 10SM FEW180 BKN250 02/M08 A2982 RMK AO2 SLP074 T00171083
KDEN 180853Z 23007KT 10SM BKN250 02/M09 A2982 RMK AO2 SLP072 T00221089 57013
KDEN 180753Z 24010KT 10SM FEW180 BKN250 02/M08 A2984 RMK AO2 SLP074 T00171083
KDEN 180653Z 25008KT 10SM FEW180 BKN250 02/M08 A2985 RMK AO2 SLP078 T00171083 401671044
KDEN 180553Z 25010KT 10SM FEW160 BKN250 02/M09 A2987 RMK AO2 SLP085 T00171089 10083 20017 56007
KDEN 180453Z 17009KT 10SM FEW160 BKN250 02/M09 A2987 RMK AO2 SLP090 T00221094
KDEN 180353Z 18008KT 10SM BKN220 02/M09 A2988 RMK AO2 SLP100 T00221094
KDEN 180253Z 14010KT 10SM BKN220 04/M09 A2989 RMK AO2 SLP107 T00441089 51003
KDEN 180153Z 16011KT 10SM BKN220 06/M09 A2988 RMK AO2 SLP107 T00561089
KDEN 180053Z 15008KT 10SM FEW110 FEW140 BKN220 06/M08 A2989 RMK AO2 SLP113 T00611083
KDEN 172353Z 14007KT 10SM FEW110 FEW140 BKN220 08/M08 A2988 RMK AO2 SLP108 T00781083 10167 20078 58000
KDEN 172253Z 11006KT 10SM FEW110 SCT140 BKN220 11/M08 A2988 RMK AO2 SLP101 T01061078
KDEN 172153Z 10008KT 10SM FEW110 SCT140 BKN220 12/M09 A2989 RMK AO2 SLP106 T01221089
KDEN 172053Z 07010KT 10SM FEW100 FEW140 BKN220 13/M08 A2988 RMK AO2 SLP101 T01331083 56020
KDEN 171953Z 06005KT 10SM FEW140 BKN220 15/M13 A2989 RMK AO2 SLP100 T01501133
KDEN 171853Z 33004KT 10SM FEW140 SCT220 16/M14 A2992 RMK AO2 SLP113 T01611139
KDEN 171753Z 31004KT 10SM FEW160 SCT220 15/M13 A2995 RMK AO2 SLP125 T01501133 10150 21011 50005
KDEN 171653Z 23005KT 10SM FEW160 BKN220 12/M11 A2996 RMK AO2 SLP131 T01221106
KDEN 171553Z 22008KT 10SM FEW160 BKN220 09/M11 A2995 RMK AO2 SLP140 T00891106
KDEN 171453Z 23011KT 10SM FEW160 BKN220 05/M11 A2993 RMK AO2 SLP139 T00501111 56002
KDEN 171353Z 20012KT 10SM FEW180 SCT220 03/M11 A2993 RMK AO2 SLP139 T00331111
KDEN 171253Z 22009KT 10SM FEW180 SCT220 01/M10 A2994 RMK AO2 SLP143 T00061100
KDEN 171153Z 20010KT 10SM FEW180 FEW220 00/M10 A2994 RMK AO2 SLP139 T00001100 10017 21050 56014
KDEN 171053Z 21009KT 10SM FEW220 00/M09 A2994 RMK AO2 SLP131 T00001094
KDEN 170953Z 22010KT 10SM FEW220 M03/M09 A2997 RMK AO2 SLP145 T10281089
KDEN 170853Z 24011KT 10SM FEW120 M02/M09 A2999 RMK AO2 SLP146 T10221089 58023
KDEN 170753Z 24009KT 10SM FEW120 M02/M09 A3001 RMK AO2 SLP150 T10221089
KDEN 170653Z 16010KT 10SM FEW120 FEW220 M04/M08 A3004 RMK AO2 SLP167 T10441083 401391056
KDEN 170553Z 16010KT 10SM FEW220 M04/M08 A3007 RMK AO2 SLP179 T10441083 10028 21056 58017
KDEN 170453Z 17013KT 10SM CLR M03/M08 A3008 RMK AO2 SLP183 T10281078
KDEN 170353Z 17010KT 10SM FEW220 M04/M08 A3011 RMK AO2 SLP209 T10391083
KDEN 170253Z 17011KT 10SM FEW220 M03/M08 A3012 RMK AO2 SLP218 T10281083 50002
KDEN 170153Z 15009KT 10SM FEW220 M02/M08 A3014 RMK AO2 SLP229 T10171083
KDEN 170053Z 12006KT 10SM FEW160 SCT220 00/M08 A3013 RMK AO2 SLP210 T00001078
KDEN 162353Z 07007KT 10SM FEW120 SCT160 BKN220 03/M08 A3012 RMK AO2 SLP190 T00281078 10139 20028 53016
KDEN 162253Z 06015KT 10SM FEW120 FEW160 BKN220 07/M09 A3010 RMK AO2 SLP178 T00721094